Terminal Aerodrome Forecast
Issued by NWS

Home | Current Version | Previous Version | Text Only | Print | Product List | Glossary On
Versions: 1 2 3 4 5 6 7 8 9 10 11 12 13 14 15
095
FTPA31 PHFO 211139
TAFHKO
TAF
PHKO 211139Z 2112/2212 12005KT P6SM SKC
     FM211400 06005KT P6SM FEW025 SCT050
     FM211900 22009KT P6SM VCSH SCT050
     FM212300 23009KT P6SM VCTS FEW030CB OVC050
     FM220600 12006KT P6SM SCT050=

USA.gov is the U.S. government's official web portal to all federal, state and local government web resources and services.